AirNav   ProFlight Series 2 Aviation Headset
 
 1138 users online  

4TA0 Prairie Aire Field Airport
Damon, Texas, USA

GOING TO DAMON?


FAA INFORMATION EFFECTIVE 16 JULY 2020

Location

FAA Identifier: 4TA0
Lat/Long: 29-21-19.8720N 095-39-49.8090W
29-21.331200N 095-39.830150W
29.3555200,-95.6638358
(estimated)
Elevation: 65 ft. / 20 m (estimated)
Variation: 06E (1985)
From city: 4 miles E of DAMON, TX
Time zone: UTC -5 (UTC -6 during Standard Time)
Zip code: 77461

Airport Operations

Airport use: Private use. Permission required prior to landing
Activation date: 12/1980
Control tower: no
ARTCC: HOUSTON CENTER
FSS: MONTGOMERY COUNTY FLIGHT SERVICE STATION
FOR FP FILING CALL CXO FSS 1-800-833-5602.
Attendance: UNATNDD
Wind indicator: yes
Segmented circle: no
Lights: FOR MIRL RY 17/35 CALL 832-877-1251.

Airport Communications

WX AWOS-3 at AXH (13 nm NE): 123.625 (281-431-6572)
WX ASOS at SGR (16 nm N): 118.125 (281-242-7605)
WX ASOS at LBX (18 nm SE): 119.925 (979-849-3319)

Nearby radio navigation aids

VOR radial/distance  VOR name  Freq  Var
ELAr110/38.8EAGLE LAKE VOR/DME116.4008E
IAHr200/39.7HUMBLE VORTAC116.6005E

 
NDB name  Hdg/Dist  Freq  Var  ID
WHARTON074/26.324503EARM .- .-. --

Airport Services

Fuel available: A MOGAS

Runway Information

Runway 17/35

Dimensions: 3200 x 35 ft. / 975 x 11 m
1000' TURF OVRN EACH END & 15' OVRN TURF ON WIDTH EACH SIDE.
Surface: asphalt
Runway edge lights: medium intensity
RUNWAY 17  RUNWAY 35
Traffic pattern: leftleft

Airport Ownership and Management from official FAA records

Ownership: Privately-owned
Owner: PRAIRIE AIRE OWNERS GROUP INC
22915 PIPER ROAD
NEEDVILLE, TX 77461
Phone 832-877-1251
Manager: JOHN D. NORWOOD
22915 PIPER ROAD
NEEDVILLE, TX 77461
Phone 832-877-1251

Airport Operational Statistics

Aircraft based on the field: 11
Single engine airplanes: 5
Multi engine airplanes: 1
Ultralights: 5
    

Additional Remarks

FOR CD CTC HOUSTON ARTCC AT 281-230-5622.

Instrument Procedures

There are no published instrument procedures at 4TA0.

Some nearby airports with instrument procedures:

KAXH - Houston Southwest Airport (13 nm NE)
KSGR - Sugar Land Regional Airport (16 nm N)
KLBX - Texas Gulf Coast Regional Airport (18 nm SE)
KLVJ - Pearland Regional Airport (24 nm NE)
KBYY - Bay City Regional Airport (25 nm SW)
 
Loc | Ops | Rwys | IFR | FBO | Links
Com | Nav | Svcs | Stats | Notes
Area around 4TA0 (Prairie Aire Field Airport)
 
Road maps at: MapQuest Bing Google
 
Aerial photo
WARNING: Photo may not be current or correct
Aerial photo of 4TA0 (Prairie Aire Field Airport)
Do you have a better or more recent aerial photo of Prairie Aire Field Airport that you would like to share? If so, please send us your photo.

 
Sectional chart

 
Airport distance calculator
Flying to Prairie Aire Field Airport? Find the distance to fly.

From to 4TA0

Sunrise and sunset
Times for 09-Aug-2020
 Local
(UTC-5)
 Zulu
(UTC)
Morning civil twilight06:2411:24
Sunrise06:4911:49
Sunset20:0701:07
Evening civil twilight20:3201:32

Current date and time
Zulu (UTC)  09-Aug-2020 15:33:34
Local (UTC-5)  09-Aug-2020 10:33:34
 
METAR
KAXH 
13nm NE 
091515Z AUTO 23005KT 10SM SCT023 31/26 A3013 RMK AO2 T03050257
KSGR 
16nm N 
091453Z 17007KT 10SM FEW022 SCT027 SCT035 31/26 A3012 RMK AO2 SLP200 T03110256 50008
KLBX 
18nm SE 
091513Z AUTO VRB04KT 3SM -RA BKN026 OVC034 30/26 A3012 RMK AO2 RAB1456 P0011 T03000261
KLVJ 
24nm NE 
091453Z AUTO 22005KT 9SM CLR 31/24 A3014 RMK AO2 SLP204 T03110239 50008
KBYY 
25nm SW 
091515Z AUTO 21005KT 10SM -RA BKN026 BKN036 BKN045 28/25 A3012 RMK AO2 T03030253
KHOU 
26nm NE 
091453Z 18010KT 10SM SCT030 BKN070 BKN250 31/24 A3012 RMK AO2 SLP203 T03110244 50007
KARM 
26nm W 
091515Z AUTO 17007KT 10SM SCT022 SCT031 SCT037 30/24 A3012 RMK AO2 T03010235
TAF
KSGR 
16nm N 
091132Z 0912/1012 VRB04KT P6SM SCT250 FM091500 18007KT P6SM VCTS BKN035CB OVC250 FM092100 17008KT P6SM SCT040 BKN250 FM100100 17004KT P6SM FEW020 SCT250
KLBX 
18nm SE 
091132Z 0912/1012 VRB04KT P6SM SCT025 SCT250 FM091500 VRB07KT P6SM VCTS BKN030CB OVC250 FM091900 19010KT P6SM FEW035 BKN250 FM100200 17003KT P6SM SCT250
NOTAMs
Click for the latest NOTAMs
NOTAMs are issued by the DoD/FAA and will open in a separate window not controlled by AirNav.

 

 
 

Would you like to see your business listed on this page?

 If your business provides an interesting product or service to pilots, flight crews, aircraft, or users of the Prairie Aire Field Airport, you should consider listing it here.  To start the listing process, click on the button below
 
Add a business
 

Other Pages about Prairie Aire Field Airport

Update a link
 
Copyright © AirNav, LLC. All rights reserved. Privacy Policy  Contact